ADDS METAR Data INFO
IDs: Format: Raw Decoded Include TAF

Data at: 0337 UTC 19 Jul 2018

KGYL 190335Z AUTO 10005KT 10SM CLR 21/18 A2995 RMK AO2 T02100180
KGYL 190316Z AUTO 10004KT 10SM CLR 22/18 A2996 RMK AO2 T02180180
KGYL 190315Z AUTO 10004KT 10SM CLR 22/18 A2996 RMK AO2 T02170180
KGYL 190255Z AUTO 10004KT 10SM CLR 22/18 A2996 RMK AO2 T02200181
KGYL 190235Z AUTO 10004KT 10SM CLR 23/18 A2996 RMK AO2 T02250181
KGYL 190216Z AUTO 10004KT 10SM CLR 23/18 A2996 RMK AO2 T02290182
KGYL 190215Z AUTO 10004KT 10SM CLR 23/18 A2996 RMK AO2 T02300182
KGYL 190155Z AUTO 11003KT 10SM CLR 24/18 A2996 RMK AO2 T02350184
KGYL 190135Z AUTO 11004KT 10SM CLR 24/19 A2996 RMK AO2 T02420185
KGYL 190115Z AUTO 10004KT 10SM CLR 25/19 A2996 RMK AO2 T02510185
KGYL 190055Z AUTO 12006KT 10SM CLR 26/18 A2996 RMK AO2 T02620181
KGYL 190036Z AUTO 12006KT 10SM CLR 27/18 A2997 RMK AO2 T02650178
KGYL 190035Z AUTO 12006KT 10SM CLR 27/18 A2997 RMK AO2 T02660178
KGYL 190015Z AUTO 12008KT 10SM CLR 28/18 A2997 RMK AO2 T02750179
KGYL 182355Z AUTO 10008KT 10SM CLR 28/17 A2997 RMK AO2 T02750173 10286 20269
KGYL 182335Z AUTO 11006KT 10SM CLR 28/17 A2998 RMK AO2 T02770172
KGYL 182315Z AUTO 10007KT 10SM CLR 28/17 A2998 RMK AO2 T02760167
KGYL 182255Z AUTO 12007KT 10SM CLR 28/17 A2999 RMK AO2 T02760169
KGYL 182235Z AUTO 13006KT 10SM CLR 28/17 A3000 RMK AO2 T02780173
KGYL 182215Z AUTO 15004KT 10SM CLR 28/17 A3000 RMK AO2 T02830169
KGYL 182155Z AUTO 12006KT 10SM CLR 29/18 A3000 RMK AO2 T02850175
KGYL 182135Z AUTO 14004KT 10SM CLR 28/18 A3001 RMK AO2 T02760175
KGYL 182115Z AUTO 10004KT 10SM CLR 27/18 A3002 RMK AO2 T02740177
KGYL 182055Z AUTO 12005KT 10SM CLR 28/17 A3003 RMK AO2 T02790173
KGYL 182035Z AUTO 10005KT 10SM CLR 28/18 A3003 RMK AO2 T02750175
KGYL 182015Z AUTO 11005KT 10SM CLR 28/17 A3003 RMK AO2 T02760168
KGYL 181955Z AUTO 10006KT 10SM CLR 28/17 A3004 RMK AO2 T02760169
KGYL 181935Z AUTO 13005KT 10SM CLR 27/17 A3005 RMK AO2 T02740169
KGYL 181915Z AUTO 12005KT 10SM SCT055 27/17 A3005 RMK AO2 T02690165
KGYL 181855Z AUTO 14003KT 10SM BKN055 27/16 A3006 RMK AO2 T02700164
KGYL 181835Z AUTO 15004KT 10SM SCT055 28/16 A3006 RMK AO2 T02750164
KGYL 181815Z AUTO 17004KT 10SM CLR 27/17 A3007 RMK AO2 T02710165
KGYL 181755Z AUTO 12004KT 10SM CLR 27/17 A3007 RMK AO2 T02660165 10275 20174
KGYL 181735Z AUTO 15004KT 10SM CLR 27/16 A3007 RMK AO2 T02680163
KGYL 181715Z AUTO 12004KT 10SM CLR 27/16 A3007 RMK AO2 T02700160
KGYL 181655Z AUTO 15006KT 10SM CLR 27/16 A3007 RMK AO2 T02690158
KGYL 181635Z AUTO 13006KT 10SM CLR 27/15 A3008 RMK AO2 T02660154
KGYL 181615Z AUTO 13006KT 10SM CLR 26/16 A3008 RMK AO2 T02640155
KGYL 181555Z AUTO 13007KT 10SM CLR 26/16 A3009 RMK AO2 T02580156
KGYL 181535Z AUTO 11005KT 10SM CLR 26/16 A3009 RMK AO2 T02560160
KGYL 181515Z AUTO 12004KT 10SM CLR 25/16 A3009 RMK AO2 T02490159
KGYL 181455Z AUTO 13005KT 10SM CLR 24/16 A3010 RMK AO2 T02430160
KGYL 181435Z AUTO 12005KT 10SM CLR 24/16 A3010 RMK AO2 T02370158
KGYL 181415Z AUTO 14004KT 10SM CLR 23/16 A3011 RMK AO2 T02250158
KGYL 181355Z AUTO 13004KT 10SM SCT060 SCT070 21/16 A3011 RMK AO2 T02130159
KGYL 181335Z AUTO 14004KT 10SM BKN050 BKN070 22/16 A3012 RMK AO2 T02160161
KGYL 181315Z AUTO 13004KT 10SM SCT050 21/15 A3012 RMK AO2 T02070153
KGYL 181255Z AUTO 12004KT 10SM SCT050 20/16 A3012 RMK AO2 T02020155
KGYL 181235Z AUTO 10003KT 10SM CLR 19/15 A3012 RMK AO2 T01890154
KGYL 181216Z AUTO 10004KT 10SM SCT060 SCT070 SCT080 19/16 A3011 RMK AO2 T01850155
KGYL 181155Z AUTO 00000KT 10SM BKN060 BKN070 BKN080 17/17 A3012 RMK AO2 T01710171 10181 20156
KGYL 181135Z AUTO 00000KT 10SM BKN060 BKN075 17/16 A3012 RMK AO2 T01690164
KGYL 181116Z AUTO 00000KT 7SM SCT070 SCT075 16/16 A3012 RMK AO2 T01600161
KGYL 181055Z AUTO 00000KT 10SM SCT065 SCT080 16/16 A3012 RMK AO2 T01610161
KGYL 181035Z AUTO 00000KT 10SM SCT065 BKN080 16/16 A3012 RMK AO2 T01600161
KGYL 181016Z AUTO 00000KT 10SM BKN065 BKN080 16/16 A3012 RMK AO2 T01620159
KGYL 181015Z AUTO 00000KT 10SM BKN065 BKN080 16/16 A3012 RMK AO2 T01630159
KGYL 180955Z AUTO 00000KT 10SM SCT065 16/16 A3012 RMK AO2 T01600160
KGYL 180935Z AUTO 00000KT 10SM SCT065 16/16 A3012 RMK AO2 T01600160
KGYL 180916Z AUTO 00000KT 10SM CLR 17/15 A3012 RMK AO2 T01660147
KGYL 180915Z AUTO 00000KT 10SM CLR 17/15 A3012 RMK AO2 T01650150
KGYL 180855Z AUTO 00000KT 10SM SCT065 16/14 A3012 RMK AO2 T01630143
KGYL 180835Z AUTO 00000KT 10SM SCT065 SCT080 17/14 A3011 RMK AO2 T01660141
KGYL 180815Z AUTO 11004KT 10SM SCT065 17/14 A3011 RMK AO2 T01680141
KGYL 180756Z AUTO 12003KT 10SM SCT065 17/14 A3011 RMK AO2 T01690142
KGYL 180755Z AUTO 12003KT 10SM SCT065 17/14 A3011 RMK AO2 T01690142
KGYL 180735Z AUTO 11003KT 10SM CLR 17/14 A3011 RMK AO2 T01710142
KGYL 180715Z AUTO 09003KT 10SM CLR 17/14 A3011 RMK AO2 T01660141
KGYL 180656Z AUTO 00000KT 10SM CLR 17/14 A3011 RMK AO2 T01730141
KGYL 180655Z AUTO 00000KT 10SM CLR 18/14 A3011 RMK AO2 T01750141
KGYL 180635Z AUTO 10003KT 10SM CLR 17/15 A3011 RMK AO2 T01670147
KGYL 180615Z AUTO 00000KT 10SM CLR 18/15 A3011 RMK AO2 T01790145
KGYL 180556Z AUTO 00000KT 10SM CLR 18/15 A3011 RMK AO2 T01800145 10255 20167 402650167
KGYL 180555Z AUTO 00000KT 10SM CLR 18/15 A3011 RMK AO2 T01820146 10255 20167 402650167
KGYL 180535Z AUTO 00000KT 10SM CLR 18/17 A3011 RMK AO2 T01760171
KGYL 180515Z AUTO 00000KT 10SM CLR 17/17 A3011 RMK AO2 T01670168
KGYL 180455Z AUTO 00000KT 10SM CLR 17/15 A3011 RMK AO2 T01700147
KGYL 180435Z AUTO 00000KT 10SM CLR 18/15 A3011 RMK AO2 T01750151
KGYL 180415Z AUTO 00000KT 10SM CLR 19/15 A3010 RMK AO2 T01850152
KGYL 180355Z AUTO 00000KT 10SM CLR 18/15 A3010 RMK AO2 T01820153
KGYL 180335Z AUTO 00000KT 10SM CLR 19/15 A3010 RMK AO2 T01860152
KGYL 180316Z AUTO 00000KT 10SM CLR 19/15 A3011 RMK AO2 T01890151
KGYL 180255Z AUTO 00000KT 10SM CLR 20/14 A3011 RMK AO2 T02010144
KGYL 180235Z AUTO 00000KT 10SM CLR 21/15 A3011 RMK AO2 T02060146
KGYL 180216Z AUTO 00000KT 10SM CLR 21/15 A3010 RMK AO2 T02140145
KGYL 180155Z AUTO 00000KT 10SM CLR 22/15 A3010 RMK AO2 T02180146
KGYL 180135Z AUTO 00000KT 10SM CLR 23/14 A3010 RMK AO2 T02310141
KGYL 180116Z AUTO 00000KT 10SM CLR 24/14 A3010 RMK AO2 T02380143
KGYL 180055Z AUTO 00000KT 10SM CLR 25/14 A3010 RMK AO2 T02460143
KGYL 180035Z AUTO 00000KT 10SM CLR 25/14 A3011 RMK AO2 T02480138
KGYL 180016Z AUTO 00000KT 10SM CLR 25/14 A3011 RMK AO2 T02530137
KGYL 172355Z AUTO 00000KT 10SM CLR 26/13 A3011 RMK AO2 T02560133 10265 20241
KGYL 172335Z AUTO 00000KT 10SM CLR 26/13 A3011 RMK AO2 T02560127
KGYL 172316Z AUTO 00000KT 10SM CLR 26/13 A3011 RMK AO2 T02580132
KGYL 172255Z AUTO 00000KT 10SM CLR 26/13 A3011 RMK AO2 T02600128
KGYL 172235Z AUTO 00000KT 10SM CLR 26/13 A3011 RMK AO2 T02600128
KGYL 172216Z AUTO 08003KT 10SM CLR 26/13 A3011 RMK AO2 T02610125
KGYL 172155Z AUTO 00000KT 10SM CLR 26/12 A3012 RMK AO2 T02630123
KGYL 172135Z AUTO 00000KT 10SM CLR 26/13 A3012 RMK AO2 T02590129
KGYL 172115Z AUTO 00000KT 10SM CLR 26/12 A3012 RMK AO2 T02590122
KGYL 172055Z AUTO 00000KT 10SM CLR 26/12 A3013 RMK AO2 T02610121
KGYL 172036Z AUTO 02004KT 10SM CLR 26/13 A3013 RMK AO2 T02610131
KGYL 172035Z AUTO 02004KT 10SM CLR 26/13 A3013 RMK AO2 T02610130
KGYL 172015Z AUTO 00000KT 10SM CLR 26/13 A3013 RMK AO2 T02570128
KGYL 171955Z AUTO 00000KT 10SM CLR 26/11 A3014 RMK AO2 T02550113
KGYL 171935Z AUTO 36003KT 10SM CLR 26/13 A3014 RMK AO2 T02550128
KGYL 171915Z AUTO 29003KT 10SM CLR 26/13 A3015 RMK AO2 T02570132
KGYL 171855Z AUTO 00000KT 10SM CLR 25/13 A3015 RMK AO2 T02510129
KGYL 171835Z AUTO 36005KT 10SM CLR 26/12 A3015 RMK AO2 T02550124
KGYL 171815Z AUTO 07003KT 10SM CLR 25/13 A3015 RMK AO2 T02500130
KGYL 171755Z AUTO 00000KT 10SM CLR 24/13 A3015 RMK AO2 T02430134 10245 20174
KGYL 171735Z AUTO 02003KT 10SM CLR 24/13 A3015 RMK AO2 T02430131
KGYL 171715Z AUTO 34004KT 10SM SCT055 24/13 A3016 RMK AO2 T02390127
KGYL 171655Z AUTO 07004KT 10SM CLR 24/13 A3016 RMK AO2 T02410127
KGYL 171635Z AUTO 09004KT 10SM CLR 24/13 A3016 RMK AO2 T02360131
KGYL 171615Z AUTO 05003KT 10SM CLR 24/14 A3015 RMK AO2 T02370135
KGYL 171555Z AUTO 07006KT 10SM CLR 24/14 A3016 RMK AO2 T02360138